Derby Airport


Codes: YDBY/DRB
Name: Derby Airport
City:
Country: Australia
Elevation: 24 ft.

Photos at Derby Airport


   Photos courtesy of SpottingLog. You can add your own sightings and photos by signing up for a free trial today.



No photos found.

Weather at Derby Airport


Time (UTC)DescriptionTempratureWindCloud coverageVisibilityPressureHumidity
25-Jun-2024 15:00Clear Sky20°C11 mph, 2%10000m1014hPa33%
25-Jun-2024 18:00Clear Sky19°C11 mph, SE2%10000m1013hPa36%
25-Jun-2024 21:00Broken Clouds17°C11 mph, SE72%10000m1013hPa42%
26-Jun-2024 00:00Broken Clouds21°C11 mph, SE83%10000m1015hPa32%
26-Jun-2024 03:00Broken Clouds27°C11 mph, E79%10000m1014hPa21%
26-Jun-2024 06:00Broken Clouds29°C4 mph, NE84%10000m1011hPa23%
26-Jun-2024 09:00Few Clouds25°C7 mph, NW19%10000m1012hPa35%
26-Jun-2024 12:00Scattered Clouds20°C7 mph, NW34%10000m1014hPa53%
26-Jun-2024 15:00Clear Sky19°C4 mph, S6%10000m1014hPa49%
26-Jun-2024 18:00Clear Sky18°C7 mph, E6%10000m1013hPa34%
26-Jun-2024 21:00Clear Sky18°C9 mph, E3%10000m1013hPa34%
27-Jun-2024 00:00Clear Sky21°C7 mph, NE1%10000m1015hPa26%
27-Jun-2024 03:00Clear Sky27°C7 mph, N0%10000m1014hPa30%
27-Jun-2024 06:00Clear Sky28°C9 mph, NW0%10000m1011hPa31%
27-Jun-2024 09:00Clear Sky24°C9 mph, NW1%10000m1011hPa50%
27-Jun-2024 12:00Clear Sky22°C9 mph, NW2%10000m1013hPa64%
27-Jun-2024 15:00Clear Sky19°C9 mph, SW6%10000m1014hPa64%
27-Jun-2024 18:00Clear Sky18°C7 mph, SW6%10000m1013hPa76%
27-Jun-2024 21:00Clear Sky16°C2 mph, SE8%10000m1014hPa79%
28-Jun-2024 00:00Few Clouds21°C0 mph, NE13%10000m1015hPa60%
28-Jun-2024 03:00Scattered Clouds26°C4 mph, NW47%10000m1014hPa45%
28-Jun-2024 06:00Scattered Clouds28°C9 mph, NW44%10000m1012hPa41%
28-Jun-2024 09:00Scattered Clouds25°C9 mph, NW48%10000m1012hPa57%
28-Jun-2024 12:00Scattered Clouds23°C11 mph, W44%10000m1014hPa70%
28-Jun-2024 15:00Clear Sky20°C9 mph, SW9%10000m1014hPa82%
28-Jun-2024 18:00Few Clouds19°C9 mph, SW11%10000m1014hPa89%
28-Jun-2024 21:00Few Clouds18°C4 mph, S14%10000m1014hPa91%
29-Jun-2024 00:00Clear Sky21°C4 mph, SE7%10000m1016hPa77%
29-Jun-2024 03:00Clear Sky26°C4 mph, SW3%10000m1015hPa46%
29-Jun-2024 06:00Few Clouds29°C4 mph, SW14%10000m1012hPa33%
29-Jun-2024 09:00Overcast Clouds27°C2 mph, S100%10000m1012hPa39%
29-Jun-2024 12:00Overcast Clouds23°C4 mph, W93%10000m1014hPa47%
29-Jun-2024 15:00Clear Sky22°C11 mph, SW9%10000m1014hPa80%
29-Jun-2024 18:00Clear Sky21°C11 mph, SW5%10000m1014hPa74%
29-Jun-2024 21:00Clear Sky20°C9 mph, S0%10000m1014hPa71%
30-Jun-2024 00:00Clear Sky23°C11 mph, S0%10000m1015hPa53%
30-Jun-2024 03:00Clear Sky29°C11 mph, SE0%10000m1014hPa40%
30-Jun-2024 06:00Clear Sky32°C7 mph, S0%10000m1011hPa32%
30-Jun-2024 09:00Clear Sky30°C7 mph, SW1%10000m1011hPa35%
30-Jun-2024 12:00Clear Sky26°C9 mph, S0%10000m1013hPa46%